aviador You're here:

LFLP Decoded Metar

ANNECY in FRANCE
Report Time2017-11-22 21:30:00
UTC Time2017-11-22 21:48:28
Flight Rules vfr VFR
Wind350° at 03 kt
W.Decomp.*RWY 04: 1.9 kt HW 2.3 kt LCW
W.Rank350° ranks 14
Current wind is below 350° avg. (5.6)
Visibility9999 m
Phenomena:N/A
Clouds:N/A
Expected CloudBase > 400 ft AGL from Temp-Dew spread
CeilingNone
Temp02°C (ISA -10)
Dew Point01°C (93% RH)
AAT-0.9°C
QNH1014 hPa
Density Alt371 ft
Elevation1,519 ft
Report Wrong Elevation
Raw Report
METAR LFLP 222130Z AUTO 35003KT CAVOK 02/01 Q1014=

Extra information for LFLP:More info

Metar Taf Metar & Taf Last 4 Metars F.Rules Stats Wind Profile Meteogram Temp Stats Airport Information Weather charts Add Link Nearby VenuesMetar ALERT Operation Metar Decoded Social comments